createdAt,value
2022-09-01T00:02:11.504Z,16.17
2022-09-01T00:04:44.636Z,16.16
2022-09-01T00:07:16.203Z,16.12
2022-09-01T00:09:47.735Z,16.13
2022-09-01T00:12:22.560Z,16.13
2022-09-01T00:14:54.528Z,16.14
2022-09-01T00:17:26.109Z,16.13
2022-09-01T00:19:57.938Z,16.06
2022-09-01T00:22:29.733Z,16.10
2022-09-01T00:25:02.429Z,16.04
2022-09-01T00:27:33.929Z,16.00
2022-09-01T00:30:06.685Z,15.90
2022-09-01T00:32:38.189Z,15.96
2022-09-01T00:35:09.898Z,15.95
2022-09-01T00:37:41.395Z,15.94
2022-09-01T00:40:13.617Z,15.92
2022-09-01T00:42:45.190Z,15.88
2022-09-01T00:45:17.135Z,15.87
2022-09-01T00:47:48.848Z,15.91
2022-09-01T00:50:20.782Z,15.94
2022-09-01T00:52:52.317Z,15.87
2022-09-01T00:55:24.158Z,15.91
2022-09-01T00:57:55.689Z,15.92
2022-09-01T01:00:27.521Z,15.90
2022-09-01T01:02:59.194Z,15.88
2022-09-01T01:05:33.351Z,15.89
2022-09-01T01:08:08.205Z,15.84
2022-09-01T01:10:40.027Z,15.86
2022-09-01T01:13:12.880Z,15.84
2022-09-01T01:15:44.695Z,15.81
2022-09-01T01:18:18.843Z,15.80
2022-09-01T01:21:14.269Z,15.73
2022-09-01T01:23:45.773Z,15.73
2022-09-01T01:26:17.321Z,15.73
2022-09-01T01:28:48.827Z,15.65
2022-09-01T01:31:23.266Z,15.68
2022-09-01T01:33:54.825Z,15.68
2022-09-01T01:36:36.497Z,15.62
2022-09-01T01:39:08.016Z,15.67
2022-09-01T01:41:44.581Z,15.59
2022-09-01T01:44:16.139Z,15.57
2022-09-01T01:46:47.968Z,15.56
2022-09-01T01:49:20.565Z,15.47
2022-09-01T01:51:56.405Z,15.47
2022-09-01T01:54:29.623Z,15.49
2022-09-01T01:57:01.567Z,15.45
2022-09-01T01:59:34.112Z,15.40
2022-09-01T02:02:09.735Z,15.40
2022-09-01T02:04:41.942Z,15.40
2022-09-01T02:07:13.618Z,15.43
2022-09-01T02:09:48.434Z,15.41
2022-09-01T02:12:21.170Z,15.42
2022-09-01T02:14:55.060Z,15.39
2022-09-01T02:17:27.394Z,15.39
2022-09-01T02:19:59.667Z,15.31
2022-09-01T02:22:31.196Z,15.29
2022-09-01T02:25:02.996Z,15.29
2022-09-01T02:27:36.763Z,15.28
2022-09-01T02:30:13.074Z,15.22
2022-09-01T02:32:44.595Z,15.20
2022-09-01T02:35:16.662Z,15.21
2022-09-01T02:37:51.486Z,15.14
2022-09-01T02:40:23.461Z,15.12
2022-09-01T02:42:55.350Z,15.16
2022-09-01T02:45:27.203Z,15.18
2022-09-01T02:47:58.944Z,15.15
2022-09-01T02:50:31.374Z,15.13
2022-09-01T02:53:04.004Z,15.08
2022-09-01T02:55:35.975Z,15.06
2022-09-01T02:58:10.383Z,15.05
2022-09-01T03:00:44.610Z,15.02
2022-09-01T03:03:21.626Z,15.00
2022-09-01T03:05:55.857Z,14.95
2022-09-01T03:08:28.367Z,14.87
2022-09-01T03:11:02.040Z,14.85
2022-09-01T03:13:34.031Z,14.80
2022-09-01T03:16:05.801Z,14.77
2022-09-01T03:18:37.731Z,14.68
2022-09-01T03:21:16.113Z,14.69
2022-09-01T03:23:48.113Z,14.63
2022-09-01T03:26:21.065Z,14.56
2022-09-01T03:28:53.043Z,14.54
2022-09-01T03:31:27.576Z,14.46
2022-09-01T03:34:03.586Z,14.39
2022-09-01T03:36:35.124Z,14.31
2022-09-01T03:39:14.516Z,14.24
2022-09-01T03:41:47.928Z,14.14
2022-09-01T03:44:20.047Z,14.08
2022-09-01T03:46:52.712Z,14.02
2022-09-01T03:49:29.120Z,13.92
2022-09-01T03:52:01.254Z,13.89
2022-09-01T03:54:33.406Z,13.88
2022-09-01T03:57:06.814Z,13.82
2022-09-01T03:59:43.864Z,13.80
2022-09-01T04:02:15.433Z,13.76
2022-09-01T04:04:47.461Z,13.73
2022-09-01T04:07:19.517Z,11.45
2022-09-01T04:09:52.804Z,13.66
2022-09-01T04:12:25.840Z,13.62
2022-09-01T04:14:57.484Z,13.59
2022-09-01T04:17:47.853Z,13.54
2022-09-01T04:20:21.051Z,13.53
2022-09-01T04:22:52.732Z,13.52
2022-09-01T04:25:25.578Z,13.50
2022-09-01T04:27:58.533Z,13.49
2022-09-01T04:30:31.913Z,13.44
2022-09-01T04:33:03.419Z,13.44
2022-09-01T04:35:37.978Z,13.42
2022-09-01T04:38:09.792Z,13.40
2022-09-01T04:40:43.276Z,13.39
2022-09-01T04:43:14.889Z,13.42
2022-09-01T04:45:49.020Z,13.46
2022-09-01T04:48:22.122Z,13.49
2022-09-01T04:50:56.657Z,13.54
2022-09-01T04:53:29.460Z,13.60
2022-09-01T04:56:04.807Z,13.62
2022-09-01T04:58:36.942Z,13.65
2022-09-01T05:01:12.698Z,13.70
2022-09-01T05:03:45.263Z,13.74
2022-09-01T05:06:17.970Z,13.79
2022-09-01T05:08:49.810Z,13.87
2022-09-01T05:11:21.624Z,13.96
2022-09-01T05:13:57.581Z,14.01
2022-09-01T05:16:29.593Z,14.11
2022-09-01T05:19:01.525Z,14.16
2022-09-01T05:21:33.546Z,14.24
2022-09-01T05:24:05.658Z,14.35
2022-09-01T05:26:40.841Z,14.46
2022-09-01T05:29:13.996Z,14.52
2022-09-01T05:31:45.568Z,14.58
2022-09-01T05:34:23.397Z,14.61
2022-09-01T05:36:54.965Z,14.75
2022-09-01T05:39:26.757Z,14.87
2022-09-01T05:41:58.257Z,14.90
2022-09-01T05:44:30.112Z,14.92
2022-09-01T05:47:05.382Z,15.00
2022-09-01T05:49:37.912Z,15.06
2022-09-01T05:52:09.470Z,15.18
2022-09-01T05:54:42.490Z,15.32
2022-09-01T05:57:33.311Z,15.49
2022-09-01T06:00:10.782Z,15.47
2022-09-01T06:02:42.886Z,15.57
2022-09-01T06:05:16.175Z,15.73
2022-09-01T06:07:47.686Z,15.82
2022-09-01T06:10:19.523Z,15.85
2022-09-01T06:12:53.982Z,15.98
2022-09-01T06:15:28.813Z,16.17
2022-09-01T06:18:00.679Z,16.08
2022-09-01T06:20:32.260Z,16.22
2022-09-01T06:23:03.816Z,16.41
2022-09-01T06:25:35.833Z,16.57
2022-09-01T06:28:08.515Z,16.53
2022-09-01T06:30:40.477Z,16.61
2022-09-01T06:33:13.569Z,16.87
2022-09-01T06:35:47.461Z,16.70
2022-09-01T06:38:19.075Z,16.92
2022-09-01T06:40:54.742Z,17.08
2022-09-01T06:43:27.811Z,17.17
2022-09-01T06:46:01.197Z,17.18
2022-09-01T06:48:33.004Z,17.27
2022-09-01T06:51:21.251Z,17.48
2022-09-01T06:53:57.275Z,17.68
2022-09-01T06:59:22.032Z,18.05
2022-09-01T07:02:01.392Z,18.16
2022-09-01T07:04:36.018Z,18.19
2022-09-01T07:13:09.031Z,18.24
2022-09-01T07:18:32.540Z,18.68
2022-09-01T07:21:36.799Z,18.60
2022-09-01T07:24:10.968Z,19.02
2022-09-01T07:26:47.184Z,18.80
2022-09-01T07:29:20.288Z,19.02
2022-09-01T07:34:50.066Z,19.22
2022-09-01T07:39:57.720Z,17.80
2022-09-01T07:43:11.465Z,19.79
2022-09-01T07:45:59.774Z,20.09
2022-09-01T07:51:39.089Z,20.16
2022-09-01T07:54:14.174Z,20.44
2022-09-01T07:56:45.768Z,20.45
2022-09-01T07:59:18.619Z,20.50
2022-09-01T08:01:50.759Z,20.54
2022-09-01T08:04:23.286Z,20.69
2022-09-01T08:06:56.034Z,20.55
2022-09-01T08:09:37.189Z,20.87
2022-09-01T08:12:10.179Z,20.79
2022-09-01T08:14:41.671Z,21.26
2022-09-01T08:17:18.252Z,21.46
2022-09-01T08:20:08.192Z,21.53
2022-09-01T08:22:41.380Z,19.94
2022-09-01T08:25:12.885Z,21.54
2022-09-01T08:27:44.874Z,21.29
2022-09-01T08:30:16.443Z,21.29
2022-09-01T08:32:49.879Z,21.50
2022-09-01T08:35:21.490Z,21.67
2022-09-01T08:37:54.160Z,21.53
2022-09-01T08:40:25.845Z,22.00
2022-09-01T08:42:57.933Z,21.85
2022-09-01T08:45:29.442Z,21.84
2022-09-01T08:48:57.180Z,21.80
2022-09-01T08:50:53.118Z,22.18
2022-09-01T08:53:25.070Z,22.07
2022-09-01T08:55:56.690Z,22.61
2022-09-01T08:58:28.738Z,22.69
2022-09-01T09:01:01.127Z,22.54
2022-09-01T09:03:48.205Z,22.48
2022-09-01T09:06:20.155Z,22.76
2022-09-01T09:08:51.664Z,22.47
2022-09-01T09:11:23.521Z,22.73
2022-09-01T09:13:55.290Z,22.95
2022-09-01T09:16:28.015Z,23.19
2022-09-01T09:18:59.777Z,22.80
2022-09-01T09:21:31.748Z,23.04
2022-09-01T09:24:03.286Z,23.30
2022-09-01T09:26:42.784Z,23.57
2022-09-01T09:29:14.602Z,23.35
2022-09-01T09:31:50.605Z,23.23
2022-09-01T09:34:23.004Z,23.13
2022-09-01T09:36:57.115Z,23.74
2022-09-01T09:39:29.518Z,23.84
2022-09-01T09:42:01.984Z,23.00
2022-09-01T09:44:33.545Z,22.98
2022-09-01T09:47:13.464Z,23.62
2022-09-01T09:49:57.032Z,23.81
2022-09-01T09:52:28.885Z,23.44
2022-09-01T09:55:00.820Z,22.46
2022-09-01T09:57:32.650Z,22.40
2022-09-01T10:00:04.161Z,23.51
2022-09-01T10:02:36.025Z,24.77
2022-09-01T10:05:07.581Z,25.24
2022-09-01T10:07:39.873Z,25.74
2022-09-01T10:10:11.518Z,25.54
2022-09-01T10:12:45.864Z,25.96
2022-09-01T10:15:17.448Z,25.82
2022-09-01T10:17:49.548Z,26.65
2022-09-01T10:20:21.560Z,26.95
2022-09-01T10:22:53.069Z,25.26
2022-09-01T10:25:24.992Z,24.98
2022-09-01T10:27:58.383Z,24.13
2022-09-01T10:30:31.263Z,24.51
2022-09-01T10:33:11.423Z,24.01
2022-09-01T10:35:48.209Z,23.62
2022-09-01T10:38:20.695Z,23.38
2022-09-01T10:41:07.905Z,23.17
2022-09-01T10:43:41.420Z,23.07
2022-09-01T10:46:15.665Z,23.83
2022-09-01T10:48:55.898Z,24.82
2022-09-01T10:51:35.484Z,23.70
2022-09-01T10:54:09.799Z,23.64
2022-09-01T10:56:50.813Z,24.10
2022-09-01T10:59:43.460Z,25.25
2022-09-01T11:02:35.906Z,24.18
2022-09-01T11:05:06.509Z,25.11
2022-09-01T11:08:00.098Z,25.03
2022-09-01T11:10:32.680Z,24.99
2022-09-01T11:13:05.307Z,24.37
2022-09-01T11:15:37.573Z,23.80
2022-09-01T11:18:09.133Z,23.65
2022-09-01T11:20:41.292Z,23.36
2022-09-01T11:23:12.932Z,23.57
2022-09-01T11:25:44.859Z,23.26
2022-09-01T11:28:18.036Z,23.49
2022-09-01T11:30:53.236Z,23.33
2022-09-01T11:33:24.747Z,23.52
2022-09-01T11:35:56.678Z,23.86
2022-09-01T11:38:28.283Z,23.98
2022-09-01T11:41:00.210Z,24.22
2022-09-01T11:43:31.826Z,24.01
2022-09-01T11:46:04.000Z,23.85
2022-09-01T11:48:35.592Z,23.65
2022-09-01T11:51:07.567Z,23.75
2022-09-01T11:53:46.246Z,23.99
2022-09-01T11:56:17.836Z,24.20
2022-09-01T11:58:49.355Z,23.94
2022-09-01T12:01:21.239Z,23.98
2022-09-01T12:03:53.168Z,23.93
2022-09-01T12:06:25.221Z,23.94
2022-09-01T12:08:56.786Z,24.33
2022-09-01T12:11:30.746Z,24.14
2022-09-01T12:14:02.297Z,24.40
2022-09-01T12:16:37.505Z,24.22
2022-09-01T12:19:11.833Z,23.46
2022-09-01T12:21:44.238Z,23.85
2022-09-01T12:24:15.819Z,24.43
2022-09-01T12:26:48.053Z,24.35
2022-09-01T12:29:19.599Z,24.12
2022-09-01T12:31:52.796Z,23.92
2022-09-01T12:34:24.369Z,23.76
2022-09-01T12:36:56.249Z,23.94
2022-09-01T12:39:28.111Z,23.96
2022-09-01T12:42:00.025Z,23.98
2022-09-01T12:44:31.553Z,23.85
2022-09-01T12:47:03.438Z,23.95
2022-09-01T12:49:35.288Z,23.96
2022-09-01T12:52:07.244Z,24.10
2022-09-01T12:54:39.227Z,24.19
2022-09-01T12:57:10.779Z,24.50
2022-09-01T12:59:42.781Z,24.21
2022-09-01T13:02:14.394Z,24.85
2022-09-01T13:04:46.382Z,25.81
2022-09-01T13:07:18.064Z,25.29
2022-09-01T13:09:50.073Z,25.19
2022-09-01T13:12:21.663Z,25.22
2022-09-01T13:14:53.211Z,24.90
2022-09-01T13:17:24.767Z,24.91
2022-09-01T13:19:56.538Z,25.27
2022-09-01T13:22:28.072Z,24.98
2022-09-01T13:25:00.593Z,25.13
2022-09-01T13:27:32.149Z,25.16
2022-09-01T13:30:03.989Z,25.37
2022-09-01T13:32:35.561Z,25.91
2022-09-01T13:35:07.547Z,26.05
2022-09-01T13:37:39.342Z,26.79
2022-09-01T13:40:15.865Z,26.69
2022-09-01T13:42:47.506Z,27.03
2022-09-01T13:45:19.412Z,28.22
2022-09-01T13:53:34.354Z,26.85
2022-09-01T13:56:06.268Z,26.12
2022-09-01T13:58:37.825Z,26.08
2022-09-01T14:01:09.895Z,25.76
2022-09-01T14:03:41.946Z,25.97
2022-09-01T14:06:13.722Z,26.18
2022-09-01T14:08:45.251Z,25.57
2022-09-01T14:11:17.215Z,25.39
2022-09-01T14:13:48.741Z,25.24
2022-09-01T14:16:20.315Z,25.25
2022-09-01T14:18:51.893Z,25.20
2022-09-01T14:21:23.690Z,24.97
2022-09-01T14:23:55.305Z,25.00
2022-09-01T14:26:28.147Z,24.74
2022-09-01T14:29:02.531Z,24.71
2022-09-01T14:31:36.494Z,24.83
2022-09-01T14:34:08.695Z,25.10
2022-09-01T14:36:40.551Z,25.02
2022-09-01T14:39:12.096Z,24.80
2022-09-01T14:41:44.083Z,24.85
2022-09-01T14:44:15.614Z,24.91
2022-09-01T14:46:47.800Z,25.36
2022-09-01T14:49:22.501Z,25.12
2022-09-01T14:52:11.922Z,25.55
2022-09-01T14:54:44.179Z,25.63
2022-09-01T14:57:36.978Z,25.78
2022-09-01T15:00:10.567Z,26.89
2022-09-01T15:02:42.077Z,26.78
2022-09-01T15:05:14.100Z,26.94
2022-09-01T15:07:45.710Z,26.74
2022-09-01T15:10:24.410Z,27.23
2022-09-01T15:12:56.557Z,26.94
2022-09-01T15:15:28.580Z,26.84
2022-09-01T15:18:00.122Z,27.18
2022-09-01T15:20:47.433Z,26.90
2022-09-01T15:23:18.985Z,26.84
2022-09-01T15:25:51.058Z,27.16
2022-09-01T15:28:22.807Z,27.02
2022-09-01T15:30:54.607Z,27.14
2022-09-01T15:33:26.141Z,26.94
2022-09-01T15:35:58.216Z,26.02
2022-09-01T15:38:30.907Z,25.92
2022-09-01T15:41:04.726Z,25.72
2022-09-01T15:43:37.022Z,25.07
2022-09-01T15:46:08.906Z,24.48
2022-09-01T15:48:40.452Z,23.61
2022-09-01T15:51:12.572Z,23.63
2022-09-01T15:53:44.271Z,23.31
2022-09-01T15:56:19.461Z,22.10
2022-09-01T15:59:00.176Z,22.85
2022-09-01T16:01:33.100Z,22.60
2022-09-01T16:04:04.738Z,22.38
2022-09-01T16:06:37.636Z,22.34
2022-09-01T16:09:09.182Z,22.18
2022-09-01T16:11:41.086Z,22.04
2022-09-01T16:14:12.642Z,21.98
2022-09-01T16:16:44.526Z,21.96
2022-09-01T16:19:16.084Z,21.77
2022-09-01T16:21:47.981Z,21.76
2022-09-01T16:24:19.518Z,21.85
2022-09-01T16:26:51.346Z,21.42
2022-09-01T16:29:22.915Z,21.26
2022-09-01T16:31:54.872Z,20.73
2022-09-01T16:34:28.514Z,21.25
2022-09-01T16:37:00.884Z,21.17
2022-09-01T16:39:32.446Z,21.04
2022-09-01T16:42:04.313Z,20.95
2022-09-01T16:44:35.877Z,20.90
2022-09-01T16:47:08.187Z,20.88
2022-09-01T16:49:39.740Z,20.83
2022-09-01T16:52:11.677Z,20.71
2022-09-01T16:54:43.200Z,20.58
2022-09-01T16:57:15.041Z,20.56
2022-09-01T16:59:48.087Z,20.70
2022-09-01T17:02:21.945Z,20.48
2022-09-01T17:04:53.895Z,20.52
2022-09-01T17:07:26.383Z,20.41
2022-09-01T17:10:01.690Z,20.23
2022-09-01T17:12:33.225Z,20.20
2022-09-01T17:15:05.570Z,20.12
2022-09-01T17:17:37.098Z,20.07
2022-09-01T17:20:09.019Z,19.99
2022-09-01T17:22:40.555Z,19.94
2022-09-01T17:25:14.843Z,19.86
2022-09-01T17:27:48.995Z,19.79
2022-09-01T17:30:21.491Z,19.64
2022-09-01T17:32:53.482Z,18.88
2022-09-01T17:35:26.332Z,19.52
2022-09-01T17:37:58.152Z,19.42
2022-09-01T17:40:30.291Z,19.35
2022-09-01T17:43:02.545Z,19.29
2022-09-01T17:45:34.664Z,19.20
2022-09-01T17:48:08.978Z,19.10
2022-09-01T17:50:40.898Z,19.00
2022-09-01T17:53:12.461Z,18.96
2022-09-01T17:55:44.466Z,18.89
2022-09-01T17:58:16.016Z,18.83
2022-09-01T18:00:47.859Z,18.74
2022-09-01T18:03:22.615Z,18.70
2022-09-01T18:05:54.473Z,18.64
2022-09-01T18:08:30.048Z,18.57
2022-09-01T18:11:02.374Z,18.51
2022-09-01T18:13:52.489Z,18.43
2022-09-01T18:16:25.522Z,18.40
2022-09-01T18:18:57.108Z,18.36
2022-09-01T18:21:28.976Z,18.32
2022-09-01T18:24:01.466Z,18.23
2022-09-01T18:26:33.467Z,18.19
2022-09-01T18:29:05.164Z,18.15
2022-09-01T18:31:37.887Z,18.05
2022-09-01T18:34:09.435Z,17.99
2022-09-01T18:36:41.420Z,17.93
2022-09-01T18:39:12.951Z,17.92
2022-09-01T18:41:44.856Z,17.91
2022-09-01T18:44:16.401Z,17.86
2022-09-01T18:46:49.455Z,17.81
2022-09-01T18:49:21.243Z,17.76
2022-09-01T18:51:53.279Z,17.75
2022-09-01T18:54:25.103Z,17.74
2022-09-01T18:56:56.625Z,17.66
2022-09-01T18:59:34.801Z,17.62
2022-09-01T19:02:08.997Z,17.62
2022-09-01T19:04:41.450Z,17.59
2022-09-01T19:07:13.026Z,17.55
2022-09-01T19:09:45.220Z,16.76
2022-09-01T19:12:16.733Z,17.45
2022-09-01T19:14:48.544Z,17.44
2022-09-01T19:17:20.826Z,17.37
2022-09-01T19:19:52.706Z,17.30
2022-09-01T19:22:24.284Z,17.29
2022-09-01T19:25:16.300Z,17.26
2022-09-01T19:27:47.833Z,17.22
2022-09-01T19:30:19.689Z,17.17
2022-09-01T19:32:51.279Z,17.11
2022-09-01T19:35:22.836Z,17.13
2022-09-01T19:37:54.395Z,17.06
2022-09-01T19:40:26.027Z,17.02
2022-09-01T19:42:57.648Z,16.97
2022-09-01T19:45:29.990Z,16.95
2022-09-01T19:48:01.512Z,16.94
2022-09-01T19:50:33.522Z,16.87
2022-09-01T19:53:05.675Z,16.87
2022-09-01T19:55:37.602Z,16.83
2022-09-01T19:58:09.185Z,16.78
2022-09-01T20:00:50.907Z,16.78
2022-09-01T20:03:23.083Z,16.74
2022-09-01T20:05:54.743Z,16.70
2022-09-01T20:08:26.577Z,16.69
2022-09-01T20:10:58.521Z,16.61
2022-09-01T20:13:30.047Z,16.53
2022-09-01T20:16:01.702Z,16.51
2022-09-01T20:18:33.298Z,16.47
2022-09-01T20:21:05.246Z,16.39
2022-09-01T20:23:37.087Z,16.34
2022-09-01T20:26:09.463Z,16.29
2022-09-01T20:28:42.254Z,16.20
2022-09-01T20:31:17.034Z,16.16
2022-09-01T20:33:48.721Z,16.10
2022-09-01T20:36:20.304Z,15.03
2022-09-01T20:39:10.752Z,16.02
2022-09-01T20:41:43.057Z,15.96
2022-09-01T20:44:17.414Z,15.89
2022-09-01T20:46:48.935Z,15.86
2022-09-01T20:49:20.929Z,15.81
2022-09-01T20:51:52.456Z,15.74
2022-09-01T20:54:24.286Z,15.72
2022-09-01T20:56:55.806Z,15.72
2022-09-01T20:59:27.695Z,15.68
2022-09-01T21:01:59.393Z,15.59
2022-09-01T21:04:31.446Z,15.60
2022-09-01T21:07:02.970Z,15.52
2022-09-01T21:09:35.019Z,15.53
2022-09-01T21:12:06.587Z,15.49
2022-09-01T21:14:38.488Z,15.44
2022-09-01T21:17:10.026Z,15.45
2022-09-01T21:19:41.873Z,15.43
2022-09-01T21:22:13.402Z,15.38
2022-09-01T21:24:45.255Z,14.68
2022-09-01T21:27:17.286Z,15.33
2022-09-01T21:29:50.129Z,15.32
2022-09-01T21:32:22.603Z,15.30
2022-09-01T21:34:54.715Z,15.29
2022-09-01T21:37:26.245Z,15.27
2022-09-01T21:39:58.470Z,15.24
2022-09-01T21:42:30.424Z,15.22
2022-09-01T21:45:02.362Z,15.15
2022-09-01T21:47:33.929Z,15.13
2022-09-01T21:50:05.904Z,15.10
2022-09-01T21:52:37.439Z,14.76
2022-09-01T21:55:09.428Z,14.96
2022-09-01T21:57:42.207Z,14.97
2022-09-01T22:00:13.926Z,14.92
2022-09-01T22:02:45.505Z,14.92
2022-09-01T22:05:17.391Z,14.84
2022-09-01T22:07:49.014Z,14.81
2022-09-01T22:10:21.339Z,14.74
2022-09-01T22:12:53.303Z,14.75
2022-09-01T22:15:24.866Z,14.72
2022-09-01T22:17:56.741Z,14.68
2022-09-01T22:20:31.746Z,14.64
2022-09-01T22:23:03.608Z,14.63
2022-09-01T22:25:36.372Z,14.60
2022-09-01T22:28:08.209Z,14.51
2022-09-01T22:30:39.768Z,14.49
2022-09-01T22:33:11.641Z,14.45
2022-09-01T22:35:43.180Z,14.45
2022-09-01T22:38:15.068Z,14.37
2022-09-01T22:40:46.731Z,14.31
2022-09-01T22:43:18.939Z,14.26
2022-09-01T22:45:50.692Z,14.26
2022-09-01T22:48:22.595Z,14.15
2022-09-01T22:50:54.138Z,14.14
2022-09-01T22:53:26.026Z,14.08
2022-09-01T22:55:58.169Z,14.11
2022-09-01T22:58:30.298Z,14.08
2022-09-01T23:01:02.826Z,14.08
2022-09-01T23:03:34.747Z,14.05
2022-09-01T23:06:06.311Z,14.07
2022-09-01T23:08:38.206Z,14.00
2022-09-01T23:11:09.822Z,13.99
2022-09-01T23:13:41.745Z,13.92
2022-09-01T23:16:13.335Z,13.90
2022-09-01T23:18:45.199Z,13.86
2022-09-01T23:21:16.739Z,13.80
2022-09-01T23:23:48.675Z,13.75
2022-09-01T23:26:30.314Z,13.75
2022-09-01T23:29:02.044Z,13.72
2022-09-01T23:31:34.801Z,13.70
2022-09-01T23:34:06.378Z,13.66
2022-09-01T23:36:38.412Z,13.65
2022-09-01T23:39:09.995Z,13.64
2022-09-01T23:41:41.617Z,13.64
2022-09-01T23:44:14.267Z,13.60
2022-09-01T23:46:46.094Z,13.58
2022-09-01T23:49:17.679Z,13.52
2022-09-01T23:51:49.637Z,13.51
2022-09-01T23:54:21.185Z,13.52
2022-09-01T23:56:53.201Z,13.52
2022-09-01T23:59:27.696Z,13.53
